Wind Surf — C6IO6 — position and weather

sailwx.info

Track history (hours):
 
Tides and Currents Weather Stations Pressure Air Temp Water Temp Dewpoint Dewpoint Depression Visibility Wind Speed Wind Dir Waves Ship Positions

Wind Surf

Operator: Holland America Line

Last reported at 2017-Sep-08 03:00 UTC. Time now 2017-Nov-23 20:49 UTC.
Position N 55°46' W 006°50'.
Warning: this ship's position is months out of date.

Date/timePositionNaut miles runAvg speedWind from/ knotsBaromVisibWave heightAir tempDewpointWater temp
2017-Sep-08 03:00N 55°46' W 006°50'5 9.3
2017-Sep-08 02:30N 55°50' W 006°52'  
2017-Sep-05 21:34N 58°41' W 003°59'111.1
2017-Sep-05 21:30N 58°41' W 003°58'510.8
2017-Sep-05 21:01N 58°42' W 003°48'510.6
2017-Sep-05 20:31N 58°42' W 003°38'610.0
2017-Sep-05 19:53N 58°42' W 003°26'4 9.6
2017-Sep-05 19:30N 58°43' W 003°19'4 8.8
2017-Sep-05 19:01N 58°43' W 003°10'3 6.4
2017-Sep-05 18:31N 58°43' W 003°04'4 8.0
2017-Sep-05 18:01N 58°43' W 002°56'510.7
2017-Sep-05 17:30N 58°46' W 002°48'13 9.9
2017-Sep-05 16:09N 58°59' W 002°41'110.5
2017-Sep-05 16:01N 58°60' W 002°44'611.5
2017-Sep-05 15:30N 59°01' W 002°55'2 1.9
2017-Sep-05 14:34N 59°00' W 002°58'0 0.0
2017-Sep-05 14:28N 59°00' W 002°58'0 0.0
2017-Sep-05 13:56N 59°00' W 002°58'0 0.1
2017-Sep-05 13:26N 59°00' W 002°58'0 0.0
2017-Sep-05 12:58N 59°00' W 002°58'0 0.0
2017-Sep-05 12:28N 59°00' W 002°58'0 0.0
2017-Sep-05 11:40N 59°00' W 002°58'0 0.0
2017-Sep-05 11:16N 59°00' W 002°58'0 0.0
2017-Sep-05 10:58N 59°00' W 002°58'0 0.0
2017-Sep-05 09:07N 59°00' W 002°58'0 0.1
2017-Sep-05 08:49N 59°00' W 002°58'0 0.1
2017-Sep-05 08:16N 59°00' W 002°58'0 0.1
2017-Sep-05 07:58N 59°00' W 002°58'1 1.6
2017-Sep-05 07:30N 59°01' W 002°57'5 9.0
2017-Sep-05 07:00N 59°00' W 002°49'510.1
2017-Sep-05 06:30N 58°59' W 002°39'17 7.1
2017-Sep-05 04:06N 58°42' W 002°42'1 8.5
2017-Sep-05 04:00N 58°41' W 002°43'4 8.7
2017-Sep-05 03:30N 58°38' W 002°47'5 9.3
2017-Sep-05 03:00N 58°33' W 002°50'83 2.0
2017-Sep-03 08:30N 57°19' W 001°41'3 6.5
2017-Sep-03 08:00N 57°15' W 001°41'3 6.7
2017-Sep-03 07:30N 57°12' W 001°42'4 7.3
2017-Sep-03 07:00N 57°08' W 001°42'7 7.9
2017-Sep-03 06:11N 57°02' W 001°42'2 8.0
2017-Sep-03 05:57N 56°60' W 001°42'14 8.0
2017-Sep-03 04:13N 56°46' W 001°48'2 8.0
2017-Sep-03 04:00N 56°45' W 001°49'4 7.9
2017-Sep-03 03:30N 56°41' W 001°52'4 7.7
2017-Sep-03 03:00N 56°38' W 001°54'4 7.4
2017-Sep-03 02:30N 56°34' W 001°55'3 7.0
2017-Sep-03 02:00N 56°31' W 001°57'3 6.7
2017-Sep-03 01:30N 56°28' W 001°59'3 6.5
2017-Sep-03 01:00N 56°25' W 002°03'4 6.6
2017-Sep-03 00:28N 56°23' W 002°09'4 6.7
2017-Sep-02 23:54N 56°21' W 002°14'2 6.4
2017-Sep-02 23:30N 56°19' W 002°18'3 6.4
2017-Sep-02 23:00N 56°17' W 002°22'3 6.4
2017-Sep-02 22:30N 56°16' W 002°27'3 6.5
2017-Sep-02 22:00N 56°14' W 002°32'3 6.2
2017-Sep-02 21:30N 56°12' W 002°36'3 6.3
2017-Sep-02 21:00N 56°10' W 002°41'3 6.4
2017-Sep-02 20:30N 56°08' W 002°46'3 6.6
2017-Sep-02 20:00N 56°07' W 002°51'3 6.5
2017-Sep-02 19:30N 56°05' W 002°56'3 6.4
2017-Sep-02 19:00N 56°03' W 003°00'4 7.7
2017-Sep-02 18:30N 56°01' W 003°06'3 6.1
2017-Sep-02 18:00N 55°59' W 003°11'0 0.2
2017-Sep-02 17:28N 55°59' W 003°11'0 0.7
2017-Sep-02 16:58N 55°59' W 003°11'0 0.0
2017-Sep-02 16:28N 55°59' W 003°11'0 0.0
2017-Sep-02 15:58N 55°59' W 003°11'0 0.0
2017-Sep-02 15:28N 55°59' W 003°11'0 0.0
2017-Sep-02 14:55N 55°59' W 003°11'0 0.0
2017-Sep-02 14:28N 55°59' W 003°11'0 0.0
2017-Sep-02 13:58N 55°59' W 003°11'0 0.0
2017-Sep-02 13:28N 55°59' W 003°11'0 0.0
2017-Sep-02 12:58N 55°59' W 003°11'0 0.0
2017-Sep-02 12:28N 55°59' W 003°11'0 0.0
2017-Sep-02 11:55N 55°59' W 003°11'0 0.0
2017-Sep-02 11:28N 55°59' W 003°11'0 0.0
2017-Sep-02 10:58N 55°59' W 003°11'0 0.0
2017-Sep-02 10:28N 55°59' W 003°11'0 0.0
2017-Sep-02 09:58N 55°59' W 003°11'0 0.0
2017-Sep-02 09:28N 55°59' W 003°11'0 0.0
2017-Sep-02 08:58N 55°59' W 003°11'0 0.0
2017-Sep-02 08:30N 55°59' W 003°11'0 0.0
2017-Sep-02 08:00N 55°59' W 003°11'0 0.2
2017-Sep-02 07:30N 55°59' W 003°11'0 0.6
2017-Sep-02 07:00N 55°59' W 003°11'0 0.3
2017-Sep-02 06:30N 55°59' W 003°11'1 2.1
2017-Sep-02 06:00N 56°00' W 003°11'2 3.4
2017-Sep-02 05:30N 56°01' W 003°08'5 9.7
2017-Sep-02 05:00N 56°03' W 003°00'510.8
2017-Sep-02 04:30N 56°06' W 002°52'510.9
2017-Sep-02 04:00N 56°08' W 002°43'510.0
2017-Sep-02 03:30N 56°09' W 002°34'5 9.7
2017-Sep-02 03:00N 56°10' W 002°25'5 9.7
2017-Sep-02 02:30N 56°11' W 002°17'5 9.5
2017-Sep-02 02:00N 56°12' W 002°09'5 9.5
2017-Sep-02 01:30N 56°13' W 002°01'5 9.4
2017-Sep-02 01:00N 56°15' W 001°53'5 9.5
2017-Sep-02 00:30N 56°16' W 001°44'12 9.7
2017-Sep-01 23:19N 56°19' W 001°24'29010.4
2017-Aug-31 19:16N 57°42' E 007°07'310.6
2017-Aug-31 19:00N 57°44' E 007°12'510.7
2017-Aug-31 18:30N 57°47' E 007°20'510.4
2017-Aug-31 18:00N 57°49' E 007°28'510.3
2017-Aug-31 17:30N 57°52' E 007°37'510.7
2017-Aug-31 17:00N 57°55' E 007°45'510.8
2017-Aug-31 16:30N 57°59' E 007°52'510.7
2017-Aug-31 16:00N 58°02' E 008°01'4 8.0
2017-Aug-31 15:30N 58°05' E 008°03'4 7.2
2017-Aug-31 14:59N 58°08' E 007°59'0 0.0
2017-Aug-31 14:29N 58°08' E 007°59'0 0.0
2017-Aug-31 13:59N 58°08' E 007°59'0 0.0
2017-Aug-31 13:29N 58°08' E 007°59'0 0.0
2017-Aug-31 12:59N 58°08' E 007°59'0 0.0
2017-Aug-31 12:29N 58°08' E 007°59'0 0.0
2017-Aug-31 11:59N 58°08' E 007°59'0 0.0
2017-Aug-31 11:29N 58°08' E 007°59'0 0.0
2017-Aug-31 10:59N 58°08' E 007°59'0 0.0
2017-Aug-31 10:29N 58°08' E 007°59'0 0.0
2017-Aug-31 09:59N 58°08' E 007°59'0 0.0
2017-Aug-31 09:29N 58°08' E 007°59'1 1.2
2017-Aug-31 09:00N 58°08' E 007°60'510.9
2017-Aug-31 08:30N 58°04' E 008°06'510.5
2017-Aug-31 08:00N 58°02' E 008°16'510.2
2017-Aug-31 07:30N 58°01' E 008°25'4 7.8
2017-Aug-31 06:59N 58°00' E 008°33'9 6.6
2017-Aug-31 05:38N 58°03' E 008°49'1 7.0
2017-Aug-31 05:29N 58°04' E 008°50'4 8.2
2017-Aug-31 04:58N 58°07' E 008°56'6 8.4
2017-Aug-31 04:18N 58°11' E 009°03'3 8.3
2017-Aug-31 03:59N 58°13' E 009°06'33 8.6
2017-Aug-31 00:09N 58°38' E 009°48'1 8.7
2017-Aug-30 23:59N 58°39' E 009°50'7 9.2
2017-Aug-30 23:16N 58°43' E 009°59'3 9.4
2017-Aug-30 23:00N 58°45' E 010°02'5 9.0
2017-Aug-30 22:29N 58°48' E 010°09'4 8.8
2017-Aug-30 22:00N 58°51' E 010°15'5 8.7
2017-Aug-30 21:29N 58°54' E 010°22'4 8.7
2017-Aug-30 21:00N 58°57' E 010°27'4 8.6
2017-Aug-30 20:30N 58°60' E 010°34'4 8.2
2017-Aug-30 20:00N 59°03' E 010°37'3 6.3
2017-Aug-30 19:30N 59°06' E 010°34'612.1
2017-Aug-30 19:00N 59°12' E 010°38'612.9
2017-Aug-30 18:30N 59°18' E 010°36'612.9
2017-Aug-30 18:00N 59°25' E 010°33'612.4
2017-Aug-30 17:30N 59°31' E 010°35'612.4
2017-Aug-30 17:00N 59°37' E 010°37'611.3
2017-Aug-30 16:30N 59°42' E 010°35'612.0
2017-Aug-30 15:59N 59°48' E 010°34'612.1
2017-Aug-30 15:30N 59°53' E 010°41'2 4.1
2017-Aug-30 14:58N 59°54' E 010°45'0 0.0
2017-Aug-30 14:28N 59°54' E 010°45'0 0.0
2017-Aug-30 13:58N 59°54' E 010°45'0 0.0
2017-Aug-30 13:28N 59°54' E 010°45'0 0.0
2017-Aug-30 12:58N 59°54' E 010°45'0 0.0
2017-Aug-30 12:28N 59°54' E 010°45'0 0.0
2017-Aug-30 11:58N 59°54' E 010°45'0 0.0
2017-Aug-30 11:28N 59°54' E 010°45'0 0.0
2017-Aug-30 10:58N 59°54' E 010°45'0 0.0
2017-Aug-30 10:28N 59°54' E 010°45'0 0.0
2017-Aug-30 09:58N 59°54' E 010°45'0 0.0
2017-Aug-30 09:28N 59°54' E 010°45'0 0.0
2017-Aug-30 08:58N 59°54' E 010°45'0 0.0
2017-Aug-30 08:28N 59°54' E 010°45'0 0.0
2017-Aug-30 07:58N 59°54' E 010°45'0 0.0
2017-Aug-30 07:28N 59°54' E 010°45'0 0.0
2017-Aug-30 06:58N 59°54' E 010°45'0 0.0
2017-Aug-30 06:28N 59°54' E 010°45'0 0.0
2017-Aug-30 05:58N 59°54' E 010°45'0 0.0
2017-Aug-30 05:30N 59°54' E 010°45'2 3.1
2017-Aug-30 05:00N 59°54' E 010°42'4 7.9
2017-Aug-30 04:30N 59°51' E 010°37'4 7.9
2017-Aug-30 04:00N 59°47' E 010°35'4 8.5
2017-Aug-30 03:30N 59°43' E 010°35'4 8.5
2017-Aug-30 03:00N 59°39' E 010°37'4 8.9
2017-Aug-30 02:31N 59°34' E 010°38'510.2
2017-Aug-30 02:01N 59°30' E 010°35'612.0
2017-Aug-30 01:30N 59°24' E 010°35'713.1
2017-Aug-30 01:00N 59°17' E 010°37'713.2
2017-Aug-30 00:31N 59°11' E 010°39'612.9
2017-Aug-30 00:01N 59°04' E 010°36'510.1
2017-Aug-29 23:31N 58°59' E 010°35'4 8.1
2017-Aug-29 23:01N 58°55' E 010°36'4 7.7
2017-Aug-29 22:30N 58°51' E 010°37'39 8.4
2017-Aug-29 17:51N 58°12' E 010°43'8 9.2
2017-Aug-29 16:58N 58°04' E 010°44'8 9.8
2017-Aug-29 16:06N 57°56' E 010°45'110.9
2017-Aug-29 16:00N 57°55' E 010°45'510.5
2017-Aug-29 15:30N 57°50' E 010°47'5 9.3
2017-Aug-29 15:00N 57°45' E 010°46'510.3
2017-Aug-29 14:29N 57°43' E 010°37'1 1.2
2017-Aug-29 13:44N 57°43' E 010°35'0 0.0
2017-Aug-29 13:29N 57°43' E 010°35'0 0.0
2017-Aug-29 12:59N 57°43' E 010°35'0 0.0
2017-Aug-29 12:29N 57°43' E 010°35'0 0.0
2017-Aug-29 11:53N 57°43' E 010°35'0 0.0
2017-Aug-29 11:29N 57°43' E 010°35'0 0.0
2017-Aug-29 10:50N 57°43' E 010°35'0 0.0
2017-Aug-29 10:29N 57°43' E 010°35'0 0.0
2017-Aug-29 09:47N 57°43' E 010°35'0 0.0
2017-Aug-29 08:11N 57°43' E 010°35'0 0.0
2017-Aug-29 07:05N 57°43' E 010°35'0 0.0
2017-Aug-29 06:56N 57°43' E 010°35'0 0.0
2017-Aug-29 06:26N 57°43' E 010°35'4 6.4
2017-Aug-29 05:53N 57°42' E 010°42'4 9.7
2017-Aug-29 05:29N 57°40' E 010°48'5 9.3
2017-Aug-29 04:59N 57°38' E 010°55'5 9.9
2017-Aug-29 04:29N 57°36' E 011°03'510.4
2017-Aug-29 03:59N 57°33' E 011°11'510.2
2017-Aug-29 03:30N 57°31' E 011°20'  
Track history (hours):
 
Tides and Currents Weather Stations Pressure Air Temp Water Temp Dewpoint Dewpoint Depression Visibility Wind Speed Wind Dir Waves Ship Positions

Wind Surf

Operator: Holland America Line

Last reported at 2017-Sep-08 03:00 UTC. Time now 2017-Nov-23 20:49 UTC.
Position N 55°46' W 006°50'.
Warning: this ship's position is months out of date.

Date/timePositionNaut miles runAvg speedWind from/ knotsBaromVisibWave heightAir tempDewpointWater temp
2017-Sep-08 03:00N 55°46' W 006°50'5 9.3
2017-Sep-08 02:30N 55°50' W 006°52'  
2017-Sep-05 21:34N 58°41' W 003°59'111.1
2017-Sep-05 21:30N 58°41' W 003°58'510.8
2017-Sep-05 21:01N 58°42' W 003°48'510.6
2017-Sep-05 20:31N 58°42' W 003°38'610.0
2017-Sep-05 19:53N 58°42' W 003°26'4 9.6
2017-Sep-05 19:30N 58°43' W 003°19'4 8.8
2017-Sep-05 19:01N 58°43' W 003°10'3 6.4
2017-Sep-05 18:31N 58°43' W 003°04'4 8.0
2017-Sep-05 18:01N 58°43' W 002°56'510.7
2017-Sep-05 17:30N 58°46' W 002°48'13 9.9
2017-Sep-05 16:09N 58°59' W 002°41'110.5
2017-Sep-05 16:01N 58°60' W 002°44'611.5
2017-Sep-05 15:30N 59°01' W 002°55'2 1.9
2017-Sep-05 14:34N 59°00' W 002°58'0 0.0
2017-Sep-05 14:28N 59°00' W 002°58'0 0.0
2017-Sep-05 13:56N 59°00' W 002°58'0 0.1
2017-Sep-05 13:26N 59°00' W 002°58'0 0.0
2017-Sep-05 12:58N 59°00' W 002°58'0 0.0
2017-Sep-05 12:28N 59°00' W 002°58'0 0.0
2017-Sep-05 11:40N 59°00' W 002°58'0 0.0
2017-Sep-05 11:16N 59°00' W 002°58'0 0.0
2017-Sep-05 10:58N 59°00' W 002°58'0 0.0
2017-Sep-05 09:07N 59°00' W 002°58'0 0.1
2017-Sep-05 08:49N 59°00' W 002°58'0 0.1
2017-Sep-05 08:16N 59°00' W 002°58'0 0.1
2017-Sep-05 07:58N 59°00' W 002°58'1 1.6
2017-Sep-05 07:30N 59°01' W 002°57'5 9.0
2017-Sep-05 07:00N 59°00' W 002°49'510.1
2017-Sep-05 06:30N 58°59' W 002°39'17 7.1
2017-Sep-05 04:06N 58°42' W 002°42'1 8.5
2017-Sep-05 04:00N 58°41' W 002°43'4 8.7
2017-Sep-05 03:30N 58°38' W 002°47'5 9.3
2017-Sep-05 03:00N 58°33' W 002°50'83 2.0
2017-Sep-03 08:30N 57°19' W 001°41'3 6.5
2017-Sep-03 08:00N 57°15' W 001°41'3 6.7
2017-Sep-03 07:30N 57°12' W 001°42'4 7.3
2017-Sep-03 07:00N 57°08' W 001°42'7 7.9
2017-Sep-03 06:11N 57°02' W 001°42'2 8.0
2017-Sep-03 05:57N 56°60' W 001°42'14 8.0
2017-Sep-03 04:13N 56°46' W 001°48'2 8.0
2017-Sep-03 04:00N 56°45' W 001°49'4 7.9
2017-Sep-03 03:30N 56°41' W 001°52'4 7.7
2017-Sep-03 03:00N 56°38' W 001°54'4 7.4
2017-Sep-03 02:30N 56°34' W 001°55'3 7.0
2017-Sep-03 02:00N 56°31' W 001°57'3 6.7
2017-Sep-03 01:30N 56°28' W 001°59'3 6.5
2017-Sep-03 01:00N 56°25' W 002°03'4 6.6
2017-Sep-03 00:28N 56°23' W 002°09'4 6.7
2017-Sep-02 23:54N 56°21' W 002°14'2 6.4
2017-Sep-02 23:30N 56°19' W 002°18'3 6.4
2017-Sep-02 23:00N 56°17' W 002°22'3 6.4
2017-Sep-02 22:30N 56°16' W 002°27'3 6.5
2017-Sep-02 22:00N 56°14' W 002°32'3 6.2
2017-Sep-02 21:30N 56°12' W 002°36'3 6.3
2017-Sep-02 21:00N 56°10' W 002°41'3 6.4
2017-Sep-02 20:30N 56°08' W 002°46'3 6.6
2017-Sep-02 20:00N 56°07' W 002°51'3 6.5
2017-Sep-02 19:30N 56°05' W 002°56'3 6.4
2017-Sep-02 19:00N 56°03' W 003°00'4 7.7
2017-Sep-02 18:30N 56°01' W 003°06'3 6.1
2017-Sep-02 18:00N 55°59' W 003°11'0 0.2
2017-Sep-02 17:28N 55°59' W 003°11'0 0.7
2017-Sep-02 16:58N 55°59' W 003°11'0 0.0
2017-Sep-02 16:28N 55°59' W 003°11'0 0.0
2017-Sep-02 15:58N 55°59' W 003°11'0 0.0
2017-Sep-02 15:28N 55°59' W 003°11'0 0.0
2017-Sep-02 14:55N 55°59' W 003°11'0 0.0
2017-Sep-02 14:28N 55°59' W 003°11'0 0.0
2017-Sep-02 13:58N 55°59' W 003°11'0 0.0
2017-Sep-02 13:28N 55°59' W 003°11'0 0.0
2017-Sep-02 12:58N 55°59' W 003°11'0 0.0
2017-Sep-02 12:28N 55°59' W 003°11'0 0.0
2017-Sep-02 11:55N 55°59' W 003°11'0 0.0
2017-Sep-02 11:28N 55°59' W 003°11'0 0.0
2017-Sep-02 10:58N 55°59' W 003°11'0 0.0
2017-Sep-02 10:28N 55°59' W 003°11'0 0.0
2017-Sep-02 09:58N 55°59' W 003°11'0 0.0
2017-Sep-02 09:28N 55°59' W 003°11'0 0.0
2017-Sep-02 08:58N 55°59' W 003°11'0 0.0
2017-Sep-02 08:30N 55°59' W 003°11'0 0.0
2017-Sep-02 08:00N 55°59' W 003°11'0 0.2
2017-Sep-02 07:30N 55°59' W 003°11'0 0.6
2017-Sep-02 07:00N 55°59' W 003°11'0 0.3
2017-Sep-02 06:30N 55°59' W 003°11'1 2.1
2017-Sep-02 06:00N 56°00' W 003°11'2 3.4
2017-Sep-02 05:30N 56°01' W 003°08'5 9.7
2017-Sep-02 05:00N 56°03' W 003°00'510.8
2017-Sep-02 04:30N 56°06' W 002°52'510.9
2017-Sep-02 04:00N 56°08' W 002°43'510.0
2017-Sep-02 03:30N 56°09' W 002°34'5 9.7
2017-Sep-02 03:00N 56°10' W 002°25'5 9.7
2017-Sep-02 02:30N 56°11' W 002°17'5 9.5
2017-Sep-02 02:00N 56°12' W 002°09'5 9.5
2017-Sep-02 01:30N 56°13' W 002°01'5 9.4
2017-Sep-02 01:00N 56°15' W 001°53'5 9.5
2017-Sep-02 00:30N 56°16' W 001°44'12 9.7
2017-Sep-01 23:19N 56°19' W 001°24'29010.4
2017-Aug-31 19:16N 57°42' E 007°07'310.6
2017-Aug-31 19:00N 57°44' E 007°12'510.7
2017-Aug-31 18:30N 57°47' E 007°20'510.4
2017-Aug-31 18:00N 57°49' E 007°28'510.3
2017-Aug-31 17:30N 57°52' E 007°37'510.7
2017-Aug-31 17:00N 57°55' E 007°45'510.8
2017-Aug-31 16:30N 57°59' E 007°52'510.7
2017-Aug-31 16:00N 58°02' E 008°01'4 8.0
2017-Aug-31 15:30N 58°05' E 008°03'4 7.2
2017-Aug-31 14:59N 58°08' E 007°59'0 0.0
2017-Aug-31 14:29N 58°08' E 007°59'0 0.0
2017-Aug-31 13:59N 58°08' E 007°59'0 0.0
2017-Aug-31 13:29N 58°08' E 007°59'0 0.0
2017-Aug-31 12:59N 58°08' E 007°59'0 0.0
2017-Aug-31 12:29N 58°08' E 007°59'0 0.0
2017-Aug-31 11:59N 58°08' E 007°59'0 0.0
2017-Aug-31 11:29N 58°08' E 007°59'0 0.0
2017-Aug-31 10:59N 58°08' E 007°59'0 0.0
2017-Aug-31 10:29N 58°08' E 007°59'0 0.0
2017-Aug-31 09:59N 58°08' E 007°59'0 0.0
2017-Aug-31 09:29N 58°08' E 007°59'1 1.2
2017-Aug-31 09:00N 58°08' E 007°60'510.9
2017-Aug-31 08:30N 58°04' E 008°06'510.5
2017-Aug-31 08:00N 58°02' E 008°16'510.2
2017-Aug-31 07:30N 58°01' E 008°25'4 7.8
2017-Aug-31 06:59N 58°00' E 008°33'9 6.6
2017-Aug-31 05:38N 58°03' E 008°49'1 7.0
2017-Aug-31 05:29N 58°04' E 008°50'4 8.2
2017-Aug-31 04:58N 58°07' E 008°56'6 8.4
2017-Aug-31 04:18N 58°11' E 009°03'3 8.3
2017-Aug-31 03:59N 58°13' E 009°06'33 8.6
2017-Aug-31 00:09N 58°38' E 009°48'1 8.7
2017-Aug-30 23:59N 58°39' E 009°50'7 9.2
2017-Aug-30 23:16N 58°43' E 009°59'3 9.4
2017-Aug-30 23:00N 58°45' E 010°02'5 9.0
2017-Aug-30 22:29N 58°48' E 010°09'4 8.8
2017-Aug-30 22:00N 58°51' E 010°15'5 8.7
2017-Aug-30 21:29N 58°54' E 010°22'4 8.7
2017-Aug-30 21:00N 58°57' E 010°27'4 8.6
2017-Aug-30 20:30N 58°60' E 010°34'4 8.2
2017-Aug-30 20:00N 59°03' E 010°37'3 6.3
2017-Aug-30 19:30N 59°06' E 010°34'612.1
2017-Aug-30 19:00N 59°12' E 010°38'612.9
2017-Aug-30 18:30N 59°18' E 010°36'612.9
2017-Aug-30 18:00N 59°25' E 010°33'612.4
2017-Aug-30 17:30N 59°31' E 010°35'612.4
2017-Aug-30 17:00N 59°37' E 010°37'611.3
2017-Aug-30 16:30N 59°42' E 010°35'612.0
2017-Aug-30 15:59N 59°48' E 010°34'612.1
2017-Aug-30 15:30N 59°53' E 010°41'2 4.1
2017-Aug-30 14:58N 59°54' E 010°45'0 0.0
2017-Aug-30 14:28N 59°54' E 010°45'0 0.0
2017-Aug-30 13:58N 59°54' E 010°45'0 0.0
2017-Aug-30 13:28N 59°54' E 010°45'0 0.0
2017-Aug-30 12:58N 59°54' E 010°45'0 0.0
2017-Aug-30 12:28N 59°54' E 010°45'0 0.0
2017-Aug-30 11:58N 59°54' E 010°45'0 0.0
2017-Aug-30 11:28N 59°54' E 010°45'0 0.0
2017-Aug-30 10:58N 59°54' E 010°45'0 0.0
2017-Aug-30 10:28N 59°54' E 010°45'0 0.0
2017-Aug-30 09:58N 59°54' E 010°45'0 0.0
2017-Aug-30 09:28N 59°54' E 010°45'0 0.0
2017-Aug-30 08:58N 59°54' E 010°45'0 0.0
2017-Aug-30 08:28N 59°54' E 010°45'0 0.0
2017-Aug-30 07:58N 59°54' E 010°45'0 0.0
2017-Aug-30 07:28N 59°54' E 010°45'0 0.0
2017-Aug-30 06:58N 59°54' E 010°45'0 0.0
2017-Aug-30 06:28N 59°54' E 010°45'0 0.0
2017-Aug-30 05:58N 59°54' E 010°45'0 0.0
2017-Aug-30 05:30N 59°54' E 010°45'2 3.1
2017-Aug-30 05:00N 59°54' E 010°42'4 7.9
2017-Aug-30 04:30N 59°51' E 010°37'4 7.9
2017-Aug-30 04:00N 59°47' E 010°35'4 8.5
2017-Aug-30 03:30N 59°43' E 010°35'4 8.5
2017-Aug-30 03:00N 59°39' E 010°37'4 8.9
2017-Aug-30 02:31N 59°34' E 010°38'510.2
2017-Aug-30 02:01N 59°30' E 010°35'612.0
2017-Aug-30 01:30N 59°24' E 010°35'713.1
2017-Aug-30 01:00N 59°17' E 010°37'713.2
2017-Aug-30 00:31N 59°11' E 010°39'612.9
2017-Aug-30 00:01N 59°04' E 010°36'510.1
2017-Aug-29 23:31N 58°59' E 010°35'4 8.1
2017-Aug-29 23:01N 58°55' E 010°36'4 7.7
2017-Aug-29 22:30N 58°51' E 010°37'39 8.4
2017-Aug-29 17:51N 58°12' E 010°43'8 9.2
2017-Aug-29 16:58N 58°04' E 010°44'8 9.8
2017-Aug-29 16:06N 57°56' E 010°45'110.9
2017-Aug-29 16:00N 57°55' E 010°45'510.5
2017-Aug-29 15:30N 57°50' E 010°47'5 9.3
2017-Aug-29 15:00N 57°45' E 010°46'510.3
2017-Aug-29 14:29N 57°43' E 010°37'1 1.2
2017-Aug-29 13:44N 57°43' E 010°35'0 0.0
2017-Aug-29 13:29N 57°43' E 010°35'0 0.0
2017-Aug-29 12:59N 57°43' E 010°35'0 0.0
2017-Aug-29 12:29N 57°43' E 010°35'0 0.0
2017-Aug-29 11:53N 57°43' E 010°35'0 0.0
2017-Aug-29 11:29N 57°43' E 010°35'0 0.0
2017-Aug-29 10:50N 57°43' E 010°35'0 0.0
2017-Aug-29 10:29N 57°43' E 010°35'0 0.0
2017-Aug-29 09:47N 57°43' E 010°35'0 0.0
2017-Aug-29 08:11N 57°43' E 010°35'0 0.0
2017-Aug-29 07:05N 57°43' E 010°35'0 0.0
2017-Aug-29 06:56N 57°43' E 010°35'0 0.0
2017-Aug-29 06:26N 57°43' E 010°35'4 6.4
2017-Aug-29 05:53N 57°42' E 010°42'4 9.7
2017-Aug-29 05:29N 57°40' E 010°48'5 9.3
2017-Aug-29 04:59N 57°38' E 010°55'5 9.9
2017-Aug-29 04:29N 57°36' E 011°03'510.4
2017-Aug-29 03:59N 57°33' E 011°11'510.2
2017-Aug-29 03:30N 57°31' E 011°20'  

Dump ship's entire track history